sensor_id;sensor_type;location;lat;lon;timestamp;pressure;altitude;pressure_sealevel;temperature;humidity
82160;BME280;71734;50.876;7.372;2023-07-31T00:02:12;98784.91;;;16.09;81.20
82160;BME280;71734;50.876;7.372;2023-07-31T00:04:38;98781.09;;;16.13;80.57
82160;BME280;71734;50.876;7.372;2023-07-31T00:07:05;98774.88;;;16.12;80.08
82160;BME280;71734;50.876;7.372;2023-07-31T00:09:31;98770.00;;;16.19;79.14
82160;BME280;71734;50.876;7.372;2023-07-31T00:11:58;98771.34;;;16.12;80.09
82160;BME280;71734;50.876;7.372;2023-07-31T00:14:24;98764.56;;;16.20;80.40
82160;BME280;71734;50.876;7.372;2023-07-31T00:16:52;98757.59;;;16.18;79.77
82160;BME280;71734;50.876;7.372;2023-07-31T00:19:19;98765.03;;;16.13;80.63
82160;BME280;71734;50.876;7.372;2023-07-31T00:21:45;98762.16;;;16.02;80.81
82160;BME280;71734;50.876;7.372;2023-07-31T00:24:11;98761.59;;;16.11;80.22
82160;BME280;71734;50.876;7.372;2023-07-31T00:26:38;98766.94;;;16.11;81.27
82160;BME280;71734;50.876;7.372;2023-07-31T00:29:04;98763.31;;;16.12;80.00
82160;BME280;71734;50.876;7.372;2023-07-31T00:31:31;98759.22;;;16.06;81.14
82160;BME280;71734;50.876;7.372;2023-07-31T00:33:58;98763.13;;;16.15;81.73
82160;BME280;71734;50.876;7.372;2023-07-31T00:36:25;98761.00;;;16.20;81.59
82160;BME280;71734;50.876;7.372;2023-07-31T00:38:51;98769.41;;;16.28;80.40
82160;BME280;71734;50.876;7.372;2023-07-31T00:41:18;98766.34;;;16.34;80.25
82160;BME280;71734;50.876;7.372;2023-07-31T00:43:44;98765.22;;;16.24;80.94
82160;BME280;71734;50.876;7.372;2023-07-31T00:46:11;98768.66;;;16.26;81.82
82160;BME280;71734;50.876;7.372;2023-07-31T00:48:38;98774.56;;;16.31;80.71
82160;BME280;71734;50.876;7.372;2023-07-31T00:51:07;98769.84;;;16.35;79.36
82160;BME280;71734;50.876;7.372;2023-07-31T00:53:36;98771.63;;;16.21;80.25
82160;BME280;71734;50.876;7.372;2023-07-31T00:56:03;98773.63;;;16.18;80.19
82160;BME280;71734;50.876;7.372;2023-07-31T00:58:29;98767.13;;;16.22;80.45
82160;BME280;71734;50.876;7.372;2023-07-31T01:00:56;98753.72;;;16.36;80.62
82160;BME280;71734;50.876;7.372;2023-07-31T01:03:22;98758.44;;;16.18;80.91
82160;BME280;71734;50.876;7.372;2023-07-31T01:05:55;98757.19;;;16.24;80.20
82160;BME280;71734;50.876;7.372;2023-07-31T01:08:28;98755.09;;;16.29;80.28
82160;BME280;71734;50.876;7.372;2023-07-31T01:11:02;98754.69;;;16.35;80.29
82160;BME280;71734;50.876;7.372;2023-07-31T01:13:33;98757.19;;;16.38;80.27
82160;BME280;71734;50.876;7.372;2023-07-31T01:16:00;98756.03;;;16.28;79.71
82160;BME280;71734;50.876;7.372;2023-07-31T01:18:26;98750.13;;;16.23;80.04
82160;BME280;71734;50.876;7.372;2023-07-31T01:20:57;98738.38;;;16.25;80.66
82160;BME280;71734;50.876;7.372;2023-07-31T01:23:51;98734.56;;;16.30;79.51
82160;BME280;71734;50.876;7.372;2023-07-31T01:26:24;98741.06;;;16.25;79.14
82160;BME280;71734;50.876;7.372;2023-07-31T01:28:58;98739.63;;;16.20;81.27
82160;BME280;71734;50.876;7.372;2023-07-31T01:31:25;98741.16;;;16.24;79.45
82160;BME280;71734;50.876;7.372;2023-07-31T01:33:53;98753.94;;;16.33;78.29
82160;BME280;71734;50.876;7.372;2023-07-31T01:36:21;98742.47;;;16.31;78.60
82160;BME280;71734;50.876;7.372;2023-07-31T01:38:48;98744.38;;;16.29;77.77
82160;BME280;71734;50.876;7.372;2023-07-31T01:41:16;98751.75;;;16.25;78.08
82160;BME280;71734;50.876;7.372;2023-07-31T01:43:44;98748.81;;;16.16;80.22
82160;BME280;71734;50.876;7.372;2023-07-31T01:46:10;98743.72;;;16.25;78.75
82160;BME280;71734;50.876;7.372;2023-07-31T01:48:37;98725.31;;;16.21;79.84
82160;BME280;71734;50.876;7.372;2023-07-31T01:51:03;98736.75;;;16.23;79.13
82160;BME280;71734;50.876;7.372;2023-07-31T01:53:31;98735.22;;;16.19;79.06
82160;BME280;71734;50.876;7.372;2023-07-31T01:55:57;98745.13;;;16.31;79.43
82160;BME280;71734;50.876;7.372;2023-07-31T01:58:24;98739.84;;;16.17;79.50
82160;BME280;71734;50.876;7.372;2023-07-31T02:00:51;98732.38;;;16.22;78.81
82160;BME280;71734;50.876;7.372;2023-07-31T02:03:18;98722.84;;;16.18;78.57
82160;BME280;71734;50.876;7.372;2023-07-31T02:05:45;98728.19;;;16.18;78.00
82160;BME280;71734;50.876;7.372;2023-07-31T02:08:11;98729.28;;;16.28;79.01
82160;BME280;71734;50.876;7.372;2023-07-31T02:10:38;98727.78;;;16.24;78.39
82160;BME280;71734;50.876;7.372;2023-07-31T02:13:04;98723.44;;;16.36;77.96
82160;BME280;71734;50.876;7.372;2023-07-31T02:15:31;98733.69;;;16.29;78.78
82160;BME280;71734;50.876;7.372;2023-07-31T02:17:59;98728.28;;;16.16;79.04
82160;BME280;71734;50.876;7.372;2023-07-31T02:20:25;98727.97;;;16.21;79.05
82160;BME280;71734;50.876;7.372;2023-07-31T02:22:51;98726.47;;;16.17;79.33
82160;BME280;71734;50.876;7.372;2023-07-31T02:25:18;98724.75;;;16.16;79.96
82160;BME280;71734;50.876;7.372;2023-07-31T02:27:44;98723.13;;;16.13;80.18
82160;BME280;71734;50.876;7.372;2023-07-31T02:30:11;98722.28;;;16.13;79.98
82160;BME280;71734;50.876;7.372;2023-07-31T02:32:37;98710.59;;;16.14;80.01
82160;BME280;71734;50.876;7.372;2023-07-31T02:35:06;98709.66;;;16.15;79.50
82160;BME280;71734;50.876;7.372;2023-07-31T02:37:34;98706.53;;;16.08;80.70
82160;BME280;71734;50.876;7.372;2023-07-31T02:40:00;98700.09;;;16.11;81.07
82160;BME280;71734;50.876;7.372;2023-07-31T02:42:27;98695.34;;;16.16;79.85
82160;BME280;71734;50.876;7.372;2023-07-31T02:44:53;98702.19;;;16.20;79.91
82160;BME280;71734;50.876;7.372;2023-07-31T02:47:21;98700.69;;;16.16;79.90
82160;BME280;71734;50.876;7.372;2023-07-31T02:49:47;98695.72;;;16.10;80.97
82160;BME280;71734;50.876;7.372;2023-07-31T02:52:15;98690.63;;;16.19;80.24
82160;BME280;71734;50.876;7.372;2023-07-31T02:54:41;98694.94;;;16.22;80.66
82160;BME280;71734;50.876;7.372;2023-07-31T02:57:08;98697.81;;;16.19;80.49
82160;BME280;71734;50.876;7.372;2023-07-31T02:59:34;98701.25;;;16.21;79.95
82160;BME280;71734;50.876;7.372;2023-07-31T03:02:00;98689.78;;;16.19;79.72
82160;BME280;71734;50.876;7.372;2023-07-31T03:04:27;98684.06;;;16.25;79.90
82160;BME280;71734;50.876;7.372;2023-07-31T03:06:53;98682.88;;;16.29;79.14
82160;BME280;71734;50.876;7.372;2023-07-31T03:09:21;98697.00;;;16.31;78.67
82160;BME280;71734;50.876;7.372;2023-07-31T03:11:48;98684.34;;;16.20;81.08
82160;BME280;71734;50.876;7.372;2023-07-31T03:14:15;98674.38;;;16.22;79.90
82160;BME280;71734;50.876;7.372;2023-07-31T03:16:41;98680.44;;;16.26;79.48
82160;BME280;71734;50.876;7.372;2023-07-31T03:19:07;98669.91;;;16.23;78.91
82160;BME280;71734;50.876;7.372;2023-07-31T03:21:34;98681.16;;;16.28;79.86
82160;BME280;71734;50.876;7.372;2023-07-31T03:26:30;98677.19;;;16.21;79.73
82160;BME280;71734;50.876;7.372;2023-07-31T03:28:57;98671.25;;;16.30;79.98
82160;BME280;71734;50.876;7.372;2023-07-31T03:31:23;98662.66;;;16.25;80.02
82160;BME280;71734;50.876;7.372;2023-07-31T03:33:50;98663.03;;;16.19;79.70
82160;BME280;71734;50.876;7.372;2023-07-31T03:36:16;98661.88;;;16.23;79.42
82160;BME280;71734;50.876;7.372;2023-07-31T03:38:42;98663.47;;;16.13;80.19
82160;BME280;71734;50.876;7.372;2023-07-31T03:41:09;98653.63;;;16.13;80.40
82160;BME280;71734;50.876;7.372;2023-07-31T03:43:37;98649.13;;;16.14;79.75
82160;BME280;71734;50.876;7.372;2023-07-31T03:46:05;98637.88;;;16.09;80.57
82160;BME280;71734;50.876;7.372;2023-07-31T03:48:32;98640.91;;;16.17;80.56
82160;BME280;71734;50.876;7.372;2023-07-31T03:50:58;98640.13;;;16.15;80.87
82160;BME280;71734;50.876;7.372;2023-07-31T03:53:24;98629.31;;;16.04;80.45
82160;BME280;71734;50.876;7.372;2023-07-31T03:55:51;98638.19;;;16.04;80.49
82160;BME280;71734;50.876;7.372;2023-07-31T03:58:17;98642.94;;;16.13;79.77
82160;BME280;71734;50.876;7.372;2023-07-31T04:00:45;98653.50;;;16.15;79.16
82160;BME280;71734;50.876;7.372;2023-07-31T04:03:11;98643.75;;;16.14;79.64
82160;BME280;71734;50.876;7.372;2023-07-31T04:05:38;98639.50;;;16.11;79.02
82160;BME280;71734;50.876;7.372;2023-07-31T04:08:05;98631.56;;;16.10;79.99
82160;BME280;71734;50.876;7.372;2023-07-31T04:10:32;98632.25;;;16.13;80.23
82160;BME280;71734;50.876;7.372;2023-07-31T04:12:59;98628.06;;;16.09;79.64
82160;BME280;71734;50.876;7.372;2023-07-31T04:15:25;98630.88;;;16.20;78.16
82160;BME280;71734;50.876;7.372;2023-07-31T04:17:53;98629.28;;;16.18;79.93
82160;BME280;71734;50.876;7.372;2023-07-31T04:20:19;98629.97;;;16.34;77.75
82160;BME280;71734;50.876;7.372;2023-07-31T04:22:46;98621.78;;;16.23;78.63
82160;BME280;71734;50.876;7.372;2023-07-31T04:25:12;98625.44;;;16.22;78.65
82160;BME280;71734;50.876;7.372;2023-07-31T04:27:39;98626.94;;;16.26;78.35
82160;BME280;71734;50.876;7.372;2023-07-31T04:30:06;98628.28;;;16.19;78.76
82160;BME280;71734;50.876;7.372;2023-07-31T04:32:33;98638.03;;;16.20;79.05
82160;BME280;71734;50.876;7.372;2023-07-31T04:35:02;98630.00;;;16.20;78.46
82160;BME280;71734;50.876;7.372;2023-07-31T04:37:28;98635.91;;;16.25;78.53
82160;BME280;71734;50.876;7.372;2023-07-31T04:39:54;98634.19;;;16.24;78.17
82160;BME280;71734;50.876;7.372;2023-07-31T04:42:21;98626.91;;;16.13;79.60
82160;BME280;71734;50.876;7.372;2023-07-31T04:44:47;98630.97;;;16.19;78.99
82160;BME280;71734;50.876;7.372;2023-07-31T04:47:14;98631.59;;;16.22;77.78
82160;BME280;71734;50.876;7.372;2023-07-31T04:49:41;98633.34;;;16.23;78.36
82160;BME280;71734;50.876;7.372;2023-07-31T04:52:08;98631.59;;;16.22;77.76
82160;BME280;71734;50.876;7.372;2023-07-31T04:54:35;98633.97;;;16.27;78.08
82160;BME280;71734;50.876;7.372;2023-07-31T04:57:01;98626.09;;;16.25;78.94
82160;BME280;71734;50.876;7.372;2023-07-31T04:59:28;98630.34;;;16.28;77.79
82160;BME280;71734;50.876;7.372;2023-07-31T05:01:54;98632.13;;;16.42;77.04
82160;BME280;71734;50.876;7.372;2023-07-31T05:04:21;98630.63;;;16.38;76.73
82160;BME280;71734;50.876;7.372;2023-07-31T05:06:47;98623.00;;;16.32;77.63
82160;BME280;71734;50.876;7.372;2023-07-31T05:09:17;98620.13;;;16.47;76.72
82160;BME280;71734;50.876;7.372;2023-07-31T05:11:44;98614.75;;;16.35;77.52
82160;BME280;71734;50.876;7.372;2023-07-31T05:14:10;98616.03;;;16.29;77.77
82160;BME280;71734;50.876;7.372;2023-07-31T05:16:36;98612.41;;;16.30;76.66
82160;BME280;71734;50.876;7.372;2023-07-31T05:19:03;98616.47;;;16.36;77.20
82160;BME280;71734;50.876;7.372;2023-07-31T05:21:29;98618.28;;;16.35;77.68
82160;BME280;71734;50.876;7.372;2023-07-31T05:23:56;98609.53;;;16.33;77.03
82160;BME280;71734;50.876;7.372;2023-07-31T05:26:23;98604.72;;;16.38;77.40
82160;BME280;71734;50.876;7.372;2023-07-31T05:28:50;98609.88;;;16.41;77.17
82160;BME280;71734;50.876;7.372;2023-07-31T05:31:16;98594.22;;;16.35;76.91
82160;BME280;71734;50.876;7.372;2023-07-31T05:33:43;98595.22;;;16.34;77.33
82160;BME280;71734;50.876;7.372;2023-07-31T05:36:10;98596.91;;;16.35;76.62
82160;BME280;71734;50.876;7.372;2023-07-31T05:38:36;98596.47;;;16.28;78.23
82160;BME280;71734;50.876;7.372;2023-07-31T05:41:03;98600.00;;;16.29;77.89
82160;BME280;71734;50.876;7.372;2023-07-31T05:43:31;98575.38;;;16.24;77.90
82160;BME280;71734;50.876;7.372;2023-07-31T05:45:57;98585.56;;;16.32;77.30
82160;BME280;71734;50.876;7.372;2023-07-31T05:48:23;98574.97;;;16.30;77.03
82160;BME280;71734;50.876;7.372;2023-07-31T05:50:50;98583.75;;;16.32;77.22
82160;BME280;71734;50.876;7.372;2023-07-31T05:53:16;98579.69;;;16.39;76.59
82160;BME280;71734;50.876;7.372;2023-07-31T05:55:43;98565.78;;;16.34;77.08
82160;BME280;71734;50.876;7.372;2023-07-31T05:58:09;98563.44;;;16.30;76.80
82160;BME280;71734;50.876;7.372;2023-07-31T06:00:37;98563.13;;;16.34;77.66
82160;BME280;71734;50.876;7.372;2023-07-31T06:03:04;98558.84;;;16.44;76.97
82160;BME280;71734;50.876;7.372;2023-07-31T06:05:30;98554.25;;;16.46;76.65
82160;BME280;71734;50.876;7.372;2023-07-31T06:07:57;98551.47;;;16.48;76.99
82160;BME280;71734;50.876;7.372;2023-07-31T06:10:23;98544.19;;;16.50;77.77
82160;BME280;71734;50.876;7.372;2023-07-31T06:12:50;98543.34;;;16.49;77.43
82160;BME280;71734;50.876;7.372;2023-07-31T06:15:16;98544.19;;;16.50;76.98
82160;BME280;71734;50.876;7.372;2023-07-31T06:17:45;98545.06;;;16.50;77.16
82160;BME280;71734;50.876;7.372;2023-07-31T06:20:12;98549.97;;;16.56;77.73
82160;BME280;71734;50.876;7.372;2023-07-31T06:22:38;98550.41;;;16.50;77.33
82160;BME280;71734;50.876;7.372;2023-07-31T06:25:05;98556.28;;;16.55;77.20
82160;BME280;71734;50.876;7.372;2023-07-31T06:27:31;98555.31;;;16.56;77.75
82160;BME280;71734;50.876;7.372;2023-07-31T06:29:58;98554.41;;;16.57;77.76
82160;BME280;71734;50.876;7.372;2023-07-31T06:32:24;98555.75;;;16.50;78.72
82160;BME280;71734;50.876;7.372;2023-07-31T06:34:52;98564.09;;;16.46;78.94
82160;BME280;71734;50.876;7.372;2023-07-31T06:37:19;98561.50;;;16.44;79.35
82160;BME280;71734;50.876;7.372;2023-07-31T06:39:45;98562.25;;;16.34;80.21
82160;BME280;71734;50.876;7.372;2023-07-31T06:42:12;98558.06;;;16.30;80.65
82160;BME280;71734;50.876;7.372;2023-07-31T06:44:38;98561.94;;;16.38;80.45
82160;BME280;71734;50.876;7.372;2023-07-31T06:47:05;98558.50;;;16.36;80.23
82160;BME280;71734;50.876;7.372;2023-07-31T06:49:31;98553.38;;;16.33;79.61
82160;BME280;71734;50.876;7.372;2023-07-31T06:51:59;98554.22;;;16.34;80.52
82160;BME280;71734;50.876;7.372;2023-07-31T06:54:25;98558.28;;;16.39;80.58
82160;BME280;71734;50.876;7.372;2023-07-31T06:56:52;98553.72;;;16.41;81.11
82160;BME280;71734;50.876;7.372;2023-07-31T06:59:18;98554.66;;;16.40;81.60
82160;BME280;71734;50.876;7.372;2023-07-31T07:01:45;98562.59;;;16.42;81.13
82160;BME280;71734;50.876;7.372;2023-07-31T07:04:11;98563.31;;;16.44;81.13
82160;BME280;71734;50.876;7.372;2023-07-31T07:06:37;98557.66;;;16.48;81.95
82160;BME280;71734;50.876;7.372;2023-07-31T07:09:05;98552.06;;;16.39;81.72
82160;BME280;71734;50.876;7.372;2023-07-31T07:11:31;98552.19;;;16.37;81.49
82160;BME280;71734;50.876;7.372;2023-07-31T07:13:58;98550.91;;;16.43;81.96
82160;BME280;71734;50.876;7.372;2023-07-31T07:16:24;98543.97;;;16.40;81.99
82160;BME280;71734;50.876;7.372;2023-07-31T07:18:51;98545.47;;;16.44;82.66
82160;BME280;71734;50.876;7.372;2023-07-31T07:21:17;98549.09;;;16.43;81.73
82160;BME280;71734;50.876;7.372;2023-07-31T07:23:44;98538.94;;;16.48;82.25
82160;BME280;71734;50.876;7.372;2023-07-31T07:26:12;98544.38;;;16.47;81.76
82160;BME280;71734;50.876;7.372;2023-07-31T07:28:38;98537.22;;;16.47;82.63
82160;BME280;71734;50.876;7.372;2023-07-31T07:31:05;98536.97;;;16.64;82.24
82160;BME280;71734;50.876;7.372;2023-07-31T07:33:31;98531.31;;;16.82;80.88
82160;BME280;71734;50.876;7.372;2023-07-31T07:36:00;98532.25;;;16.93;81.47
82160;BME280;71734;50.876;7.372;2023-07-31T07:38:27;98530.34;;;16.95;81.63
82160;BME280;71734;50.876;7.372;2023-07-31T07:40:53;98532.66;;;17.00;81.02
82160;BME280;71734;50.876;7.372;2023-07-31T07:43:21;98532.88;;;16.97;80.63
82160;BME280;71734;50.876;7.372;2023-07-31T07:45:47;98535.16;;;16.90;80.79
82160;BME280;71734;50.876;7.372;2023-07-31T07:48:14;98527.97;;;16.78;80.80
82160;BME280;71734;50.876;7.372;2023-07-31T07:50:42;98535.88;;;16.80;80.93
82160;BME280;71734;50.876;7.372;2023-07-31T07:53:09;98543.41;;;16.75;80.75
82160;BME280;71734;50.876;7.372;2023-07-31T07:55:36;98539.75;;;16.76;80.79
82160;BME280;71734;50.876;7.372;2023-07-31T07:58:02;98542.00;;;16.69;81.63
82160;BME280;71734;50.876;7.372;2023-07-31T08:00:30;98532.47;;;16.65;81.77
82160;BME280;71734;50.876;7.372;2023-07-31T08:02:56;98542.53;;;16.61;82.75
82160;BME280;71734;50.876;7.372;2023-07-31T08:05:23;98539.50;;;16.53;83.67
82160;BME280;71734;50.876;7.372;2023-07-31T08:07:50;98537.78;;;16.52;83.85
82160;BME280;71734;50.876;7.372;2023-07-31T08:10:16;98539.16;;;16.45;83.16
82160;BME280;71734;50.876;7.372;2023-07-31T08:12:43;98540.97;;;16.45;83.16
82160;BME280;71734;50.876;7.372;2023-07-31T08:15:10;98525.16;;;16.42;84.76
82160;BME280;71734;50.876;7.372;2023-07-31T08:17:37;98538.63;;;16.40;83.84
82160;BME280;71734;50.876;7.372;2023-07-31T08:20:05;98528.97;;;16.25;83.70
82160;BME280;71734;50.876;7.372;2023-07-31T08:22:32;98536.47;;;16.33;84.85
82160;BME280;71734;50.876;7.372;2023-07-31T08:24:58;98542.47;;;16.36;83.88
82160;BME280;71734;50.876;7.372;2023-07-31T08:27:25;98537.41;;;16.32;84.27
82160;BME280;71734;50.876;7.372;2023-07-31T08:29:51;98538.84;;;16.37;84.05
82160;BME280;71734;50.876;7.372;2023-07-31T08:32:18;98535.59;;;16.32;84.52
82160;BME280;71734;50.876;7.372;2023-07-31T08:34:46;98546.94;;;16.36;84.39
82160;BME280;71734;50.876;7.372;2023-07-31T08:37:12;98539.91;;;16.47;85.35
82160;BME280;71734;50.876;7.372;2023-07-31T08:39:39;98537.88;;;16.38;84.91
82160;BME280;71734;50.876;7.372;2023-07-31T08:42:08;98529.63;;;16.28;85.04
82160;BME280;71734;50.876;7.372;2023-07-31T08:44:34;98530.03;;;16.35;85.46
82160;BME280;71734;50.876;7.372;2023-07-31T08:47:01;98528.09;;;16.24;85.59
82160;BME280;71734;50.876;7.372;2023-07-31T08:49:29;98531.53;;;16.39;85.31
82160;BME280;71734;50.876;7.372;2023-07-31T08:51:58;98520.13;;;16.37;86.28
82160;BME280;71734;50.876;7.372;2023-07-31T08:54:24;98513.88;;;16.24;85.80
82160;BME280;71734;50.876;7.372;2023-07-31T08:56:54;98520.00;;;16.26;86.23
82160;BME280;71734;50.876;7.372;2023-07-31T08:59:23;98516.56;;;16.24;86.36
82160;BME280;71734;50.876;7.372;2023-07-31T09:01:53;98519.44;;;16.21;86.24
82160;BME280;71734;50.876;7.372;2023-07-31T09:04:20;98511.75;;;16.29;86.95
82160;BME280;71734;50.876;7.372;2023-07-31T09:06:48;98508.53;;;16.24;85.35
82160;BME280;71734;50.876;7.372;2023-07-31T09:09:16;98503.81;;;16.15;86.00
82160;BME280;71734;50.876;7.372;2023-07-31T09:11:42;98509.56;;;16.09;85.89
82160;BME280;71734;50.876;7.372;2023-07-31T09:14:10;98503.06;;;16.13;85.88
82160;BME280;71734;50.876;7.372;2023-07-31T09:16:51;98513.53;;;16.16;86.96
82160;BME280;71734;50.876;7.372;2023-07-31T09:19:24;98516.78;;;16.21;85.74
82160;BME280;71734;50.876;7.372;2023-07-31T09:21:51;98523.84;;;16.22;86.51
82160;BME280;71734;50.876;7.372;2023-07-31T09:26:53;98514.44;;;16.29;86.95
82160;BME280;71734;50.876;7.372;2023-07-31T09:29:20;98528.13;;;16.37;87.13
82160;BME280;71734;50.876;7.372;2023-07-31T09:31:46;98528.03;;;16.26;86.55
82160;BME280;71734;50.876;7.372;2023-07-31T09:34:13;98519.91;;;16.40;86.14
82160;BME280;71734;50.876;7.372;2023-07-31T09:36:41;98514.00;;;16.35;87.31
82160;BME280;71734;50.876;7.372;2023-07-31T09:39:17;98506.75;;;16.37;87.30
82160;BME280;71734;50.876;7.372;2023-07-31T09:41:57;98499.41;;;16.14;87.09
82160;BME280;71734;50.876;7.372;2023-07-31T09:44:40;98496.00;;;16.12;88.28
82160;BME280;71734;50.876;7.372;2023-07-31T09:47:20;98502.63;;;16.19;86.93
82160;BME280;71734;50.876;7.372;2023-07-31T09:49:48;98494.06;;;16.14;86.84
82160;BME280;71734;50.876;7.372;2023-07-31T09:52:21;98491.22;;;16.17;87.91
82160;BME280;71734;50.876;7.372;2023-07-31T09:54:47;98493.41;;;16.10;86.97
82160;BME280;71734;50.876;7.372;2023-07-31T09:57:23;98489.38;;;16.17;88.07
82160;BME280;71734;50.876;7.372;2023-07-31T09:59:52;98478.84;;;16.02;87.18
82160;BME280;71734;50.876;7.372;2023-07-31T10:02:22;98477.59;;;16.07;87.26
82160;BME280;71734;50.876;7.372;2023-07-31T10:04:50;98480.59;;;16.15;87.57
82160;BME280;71734;50.876;7.372;2023-07-31T10:07:25;98465.31;;;16.05;87.23
82160;BME280;71734;50.876;7.372;2023-07-31T10:09:53;98478.84;;;16.02;86.94
82160;BME280;71734;50.876;7.372;2023-07-31T10:12:25;98466.47;;;16.01;86.73
82160;BME280;71734;50.876;7.372;2023-07-31T10:14:54;98464.19;;;15.95;86.41
82160;BME280;71734;50.876;7.372;2023-07-31T10:17:21;98465.72;;;15.99;86.91
82160;BME280;71734;50.876;7.372;2023-07-31T10:19:53;98452.34;;;15.99;87.80
82160;BME280;71734;50.876;7.372;2023-07-31T10:22:20;98470.44;;;16.08;86.70
82160;BME280;71734;50.876;7.372;2023-07-31T10:24:54;98459.00;;;16.31;86.24
82160;BME280;71734;50.876;7.372;2023-07-31T10:27:22;98452.38;;;16.24;87.23
82160;BME280;71734;50.876;7.372;2023-07-31T10:29:53;98462.84;;;16.27;86.24
82160;BME280;71734;50.876;7.372;2023-07-31T10:32:21;98457.31;;;16.30;86.19
82160;BME280;71734;50.876;7.372;2023-07-31T10:34:49;98463.63;;;16.29;88.66
82160;BME280;71734;50.876;7.372;2023-07-31T10:37:22;98450.88;;;16.20;87.29
82160;BME280;71734;50.876;7.372;2023-07-31T10:40:23;98449.31;;;16.30;87.67
82160;BME280;71734;50.876;7.372;2023-07-31T10:43:24;98435.16;;;16.28;87.63
82160;BME280;71734;50.876;7.372;2023-07-31T10:46:26;98439.03;;;16.49;87.39
82160;BME280;71734;50.876;7.372;2023-07-31T10:49:07;98431.88;;;16.62;85.88
82160;BME280;71734;50.876;7.372;2023-07-31T10:51:35;98437.66;;;16.69;85.68
82160;BME280;71734;50.876;7.372;2023-07-31T10:54:13;98436.56;;;16.71;85.60
82160;BME280;71734;50.876;7.372;2023-07-31T10:56:46;98420.09;;;16.78;85.81
82160;BME280;71734;50.876;7.372;2023-07-31T10:59:46;98434.81;;;16.96;86.33
82160;BME280;71734;50.876;7.372;2023-07-31T11:02:26;98441.44;;;17.03;85.62
82160;BME280;71734;50.876;7.372;2023-07-31T11:05:13;98425.41;;;16.90;85.41
82160;BME280;71734;50.876;7.372;2023-07-31T11:07:50;98428.41;;;16.98;85.16
82160;BME280;71734;50.876;7.372;2023-07-31T11:13:14;98425.84;;;16.84;84.99
82160;BME280;71734;50.876;7.372;2023-07-31T11:15:56;98437.72;;;16.93;85.67
82160;BME280;71734;50.876;7.372;2023-07-31T11:18:24;98418.88;;;16.94;84.37
82160;BME280;71734;50.876;7.372;2023-07-31T11:21:07;98432.66;;;17.01;84.10
82160;BME280;71734;50.876;7.372;2023-07-31T11:23:57;98435.69;;;17.20;84.10
82160;BME280;71734;50.876;7.372;2023-07-31T11:26:27;98423.66;;;17.02;83.99
82160;BME280;71734;50.876;7.372;2023-07-31T11:29:10;98409.63;;;17.11;83.17
82160;BME280;71734;50.876;7.372;2023-07-31T11:31:49;98416.75;;;17.23;82.14
82160;BME280;71734;50.876;7.372;2023-07-31T11:34:29;98430.63;;;17.28;83.66
82160;BME280;71734;50.876;7.372;2023-07-31T11:46:54;98453.16;;;17.26;84.63
82160;BME280;71734;50.876;7.372;2023-07-31T12:20:46;98403.97;;;17.50;85.57
82160;BME280;71734;50.876;7.372;2023-07-31T12:23:14;98396.34;;;17.57;84.06
82160;BME280;71734;50.876;7.372;2023-07-31T12:25:41;98394.81;;;17.65;82.63
82160;BME280;71734;50.876;7.372;2023-07-31T12:28:10;98390.47;;;17.76;81.43
82160;BME280;71734;50.876;7.372;2023-07-31T12:30:41;98383.59;;;17.95;80.93
82160;BME280;71734;50.876;7.372;2023-07-31T12:33:13;98397.63;;;18.10;81.43
82160;BME280;71734;50.876;7.372;2023-07-31T12:35:46;98400.03;;;18.02;81.16
82160;BME280;71734;50.876;7.372;2023-07-31T12:38:20;98396.75;;;17.98;80.94
82160;BME280;71734;50.876;7.372;2023-07-31T12:40:46;98382.97;;;17.92;82.70
82160;BME280;71734;50.876;7.372;2023-07-31T12:43:16;98373.59;;;17.97;81.00
82160;BME280;71734;50.876;7.372;2023-07-31T12:45:43;98381.53;;;17.99;81.34
82160;BME280;71734;50.876;7.372;2023-07-31T12:48:10;98378.59;;;18.02;82.67
82160;BME280;71734;50.876;7.372;2023-07-31T12:50:49;98383.25;;;18.00;81.91
82160;BME280;71734;50.876;7.372;2023-07-31T12:53:18;98378.47;;;17.92;81.68
82160;BME280;71734;50.876;7.372;2023-07-31T12:55:45;98377.00;;;17.88;81.86
82160;BME280;71734;50.876;7.372;2023-07-31T12:58:12;98376.59;;;17.82;83.60
82160;BME280;71734;50.876;7.372;2023-07-31T13:00:45;98384.63;;;17.82;81.68
82160;BME280;71734;50.876;7.372;2023-07-31T13:03:12;98389.53;;;17.77;82.53
82160;BME280;71734;50.876;7.372;2023-07-31T13:05:46;98375.72;;;17.70;82.45
82160;BME280;71734;50.876;7.372;2023-07-31T13:08:14;98378.63;;;17.67;82.60
82160;BME280;71734;50.876;7.372;2023-07-31T13:10:48;98389.97;;;17.71;81.91
82160;BME280;71734;50.876;7.372;2023-07-31T13:13:15;98381.59;;;17.75;80.02
82160;BME280;71734;50.876;7.372;2023-07-31T13:15:41;98373.03;;;17.70;82.67
82160;BME280;71734;50.876;7.372;2023-07-31T13:18:11;98366.81;;;17.70;82.09
82160;BME280;71734;50.876;7.372;2023-07-31T13:20:37;98361.25;;;17.73;82.84
82160;BME280;71734;50.876;7.372;2023-07-31T13:23:04;98346.50;;;17.78;82.23
82160;BME280;71734;50.876;7.372;2023-07-31T13:25:42;98347.88;;;17.84;81.51
82160;BME280;71734;50.876;7.372;2023-07-31T13:28:15;98352.88;;;17.88;80.99
82160;BME280;71734;50.876;7.372;2023-07-31T13:30:41;98329.09;;;17.84;79.83
82160;BME280;71734;50.876;7.372;2023-07-31T13:33:08;98327.28;;;17.84;80.39
82160;BME280;71734;50.876;7.372;2023-07-31T13:35:35;98332.03;;;17.92;79.67
82160;BME280;71734;50.876;7.372;2023-07-31T13:38:02;98337.66;;;18.00;81.25
82160;BME280;71734;50.876;7.372;2023-07-31T13:40:28;98335.94;;;17.99;79.96
82160;BME280;71734;50.876;7.372;2023-07-31T13:42:58;98343.03;;;18.00;79.78
82160;BME280;71734;50.876;7.372;2023-07-31T13:45:28;98330.34;;;18.02;80.46
82160;BME280;71734;50.876;7.372;2023-07-31T13:47:54;98331.59;;;18.09;81.63
82160;BME280;71734;50.876;7.372;2023-07-31T13:50:24;98325.00;;;18.13;80.50
82160;BME280;71734;50.876;7.372;2023-07-31T13:52:50;98318.03;;;18.10;79.52
82160;BME280;71734;50.876;7.372;2023-07-31T13:55:17;98301.22;;;18.20;81.44
82160;BME280;71734;50.876;7.372;2023-07-31T13:57:50;98300.84;;;18.35;78.72